createdAt,value
2019-05-15T00:00:01.170Z,9.62
2019-05-15T00:02:28.072Z,9.20
2019-05-15T00:04:54.961Z,9.08
2019-05-15T00:07:21.986Z,9.05
2019-05-15T00:09:49.286Z,8.82
2019-05-15T00:12:18.756Z,9.14
2019-05-15T00:14:44.795Z,9.29
2019-05-15T00:17:11.528Z,9.22
2019-05-15T00:19:38.955Z,9.02
2019-05-15T00:22:05.866Z,9.14
2019-05-15T00:24:34.954Z,9.16
2019-05-15T00:27:01.663Z,9.02
2019-05-15T00:29:29.011Z,9.11
2019-05-15T00:31:56.022Z,9.12
2019-05-15T00:34:22.731Z,9.15
2019-05-15T00:36:49.437Z,9.23
2019-05-15T00:39:16.175Z,9.15
2019-05-15T00:41:53.319Z,9.18
2019-05-15T00:44:12.153Z,9.10
2019-05-15T00:46:39.041Z,9.06
2019-05-15T00:49:08.514Z,9.02
2019-05-15T00:51:35.157Z,8.99
2019-05-15T00:54:01.875Z,8.95
2019-05-15T00:56:28.612Z,8.92
2019-05-15T00:58:55.704Z,8.85
2019-05-15T01:01:22.549Z,8.77
2019-05-15T01:03:49.550Z,8.75
2019-05-15T01:06:18.885Z,8.56
2019-05-15T01:08:48.243Z,8.15
2019-05-15T01:11:15.547Z,8.19
2019-05-15T01:13:42.304Z,8.30
2019-05-15T01:16:09.360Z,8.39
2019-05-15T01:18:38.326Z,8.43
2019-05-15T01:21:08.490Z,8.49
2019-05-15T01:23:35.306Z,8.55
2019-05-15T01:26:02.543Z,8.49
2019-05-15T01:28:30.983Z,8.54
2019-05-15T01:30:59.200Z,8.28
2019-05-15T01:33:28.123Z,8.04
2019-05-15T01:35:54.705Z,8.00
2019-05-15T01:38:21.461Z,8.02
2019-05-15T01:40:49.682Z,8.03
2019-05-15T01:43:18.741Z,7.97
2019-05-15T01:45:48.124Z,7.87
2019-05-15T01:48:14.606Z,7.78
2019-05-15T01:50:41.317Z,7.81
2019-05-15T01:53:08.450Z,7.72
2019-05-15T01:55:36.115Z,7.61
2019-05-15T01:58:02.877Z,7.65
2019-05-15T02:00:29.585Z,7.53
2019-05-15T02:02:58.563Z,7.67
2019-05-15T02:05:24.927Z,7.70
2019-05-15T02:07:51.899Z,7.67
2019-05-15T02:10:18.736Z,7.48
2019-05-15T02:12:45.427Z,7.01
2019-05-15T02:15:12.137Z,6.81
2019-05-15T02:17:39.409Z,6.96
2019-05-15T02:20:08.405Z,7.16
2019-05-15T02:22:35.811Z,7.24
2019-05-15T02:25:08.277Z,7.31
2019-05-15T02:27:34.151Z,7.24
2019-05-15T02:30:16.185Z,7.18
2019-05-15T02:32:30.351Z,7.23
2019-05-15T02:34:59.001Z,7.14
2019-05-15T02:37:29.113Z,7.24
2019-05-15T02:39:54.586Z,7.28
2019-05-15T02:42:21.295Z,7.19
2019-05-15T02:44:50.008Z,7.15
2019-05-15T02:47:19.680Z,7.20
2019-05-15T02:49:48.410Z,7.19
2019-05-15T02:52:13.948Z,7.10
2019-05-15T02:54:40.683Z,7.05
2019-05-15T02:57:09.771Z,7.01
2019-05-15T02:59:39.310Z,7.10
2019-05-15T03:02:04.640Z,6.97
2019-05-15T03:04:31.390Z,6.58
2019-05-15T03:07:00.372Z,6.51
2019-05-15T03:09:29.747Z,6.59
2019-05-15T03:11:58.450Z,6.67
2019-05-15T03:14:24.302Z,6.76
2019-05-15T03:16:50.981Z,6.86
2019-05-15T03:19:19.308Z,6.78
2019-05-15T03:21:49.386Z,6.74
2019-05-15T03:24:14.988Z,6.61
2019-05-15T03:26:42.361Z,6.62
2019-05-15T03:29:09.763Z,6.54
2019-05-15T03:31:57.636Z,6.55
2019-05-15T03:34:19.316Z,6.59
2019-05-15T03:36:37.657Z,6.59
2019-05-15T03:39:05.734Z,6.62
2019-05-15T03:41:32.883Z,6.64
2019-05-15T03:43:59.814Z,6.60
2019-05-15T03:46:29.154Z,6.60
2019-05-15T03:48:55.307Z,5.96
2019-05-15T03:51:22.021Z,5.96
2019-05-15T03:53:49.685Z,5.96
2019-05-15T03:56:19.056Z,5.79
2019-05-15T03:58:49.086Z,6.01
2019-05-15T04:01:28.333Z,6.01
2019-05-15T04:03:43.333Z,6.14
2019-05-15T04:06:10.437Z,6.31
2019-05-15T04:08:39.125Z,6.33
2019-05-15T04:11:09.241Z,6.30
2019-05-15T04:13:39.551Z,6.23
2019-05-15T04:16:06.168Z,6.14
2019-05-15T04:18:32.876Z,6.17
2019-05-15T04:21:00.390Z,6.40
2019-05-15T04:23:29.818Z,6.16
2019-05-15T04:25:58.600Z,6.16
2019-05-15T04:28:24.507Z,6.20
2019-05-15T04:30:51.242Z,6.20
2019-05-15T04:33:19.920Z,6.35
2019-05-15T04:35:49.505Z,6.25
2019-05-15T04:38:15.289Z,6.29
2019-05-15T04:40:42.019Z,6.29
2019-05-15T04:43:10.538Z,6.29
2019-05-15T04:45:39.206Z,6.38
2019-05-15T04:48:09.545Z,6.43
2019-05-15T04:50:35.023Z,6.40
2019-05-15T04:53:03.177Z,6.48
2019-05-15T04:55:29.894Z,6.48
2019-05-15T04:57:59.104Z,6.74
2019-05-15T05:00:49.939Z,6.74
2019-05-15T05:03:19.817Z,6.64
2019-05-15T05:05:49.536Z,6.64
2019-05-15T05:08:14.750Z,6.74
2019-05-15T05:10:41.585Z,6.74
2019-05-15T05:13:08.924Z,6.86
2019-05-15T05:15:38.733Z,6.85
2019-05-15T05:18:04.475Z,6.85
2019-05-15T05:20:31.174Z,6.93
2019-05-15T05:22:58.363Z,6.93
2019-05-15T05:25:27.844Z,7.04
2019-05-15T05:27:53.935Z,7.17
2019-05-15T05:30:20.650Z,7.09
2019-05-15T05:32:48.728Z,7.38
2019-05-15T05:35:16.006Z,7.46
2019-05-15T05:37:43.092Z,7.56
2019-05-15T05:40:09.833Z,7.58
2019-05-15T05:42:39.260Z,7.56
2019-05-15T05:45:09.654Z,7.72
2019-05-15T05:47:38.180Z,7.85
2019-05-15T05:50:05.036Z,7.97
2019-05-15T05:52:31.779Z,8.08
2019-05-15T05:54:58.498Z,8.34
2019-05-15T05:57:25.235Z,8.43
2019-05-15T05:59:51.924Z,8.49
2019-05-15T06:02:18.826Z,8.65
2019-05-15T06:04:47.828Z,8.72
2019-05-15T06:07:14.600Z,8.88
2019-05-15T06:09:41.364Z,9.16
2019-05-15T06:12:08.079Z,9.33
2019-05-15T06:14:34.801Z,9.46
2019-05-15T06:17:01.534Z,9.41
2019-05-15T06:19:31.003Z,9.39
2019-05-15T06:22:00.705Z,9.44
2019-05-15T06:24:25.426Z,9.63
2019-05-15T06:26:52.606Z,9.82
2019-05-15T06:29:19.320Z,9.97
2019-05-15T06:31:48.218Z,9.96
2019-05-15T06:34:14.661Z,9.71
2019-05-15T06:36:41.377Z,9.79
2019-05-15T06:39:08.520Z,10.02
2019-05-15T06:41:39.194Z,10.18
2019-05-15T06:44:08.298Z,10.13
2019-05-15T06:46:34.999Z,10.08
2019-05-15T06:49:04.307Z,10.33
2019-05-15T06:51:31.341Z,10.53
2019-05-15T06:53:58.451Z,10.64
2019-05-15T06:56:27.975Z,10.81
2019-05-15T06:58:54.052Z,10.96
2019-05-15T07:01:20.734Z,10.96
2019-05-15T07:03:48.416Z,10.78
2019-05-15T07:06:17.963Z,10.61
2019-05-15T07:08:44.061Z,10.70
2019-05-15T07:11:10.756Z,10.66
2019-05-15T07:13:38.299Z,10.91
2019-05-15T07:16:08.151Z,11.06
2019-05-15T07:18:34.685Z,11.15
2019-05-15T07:21:01.397Z,11.05
2019-05-15T07:23:31.396Z,10.90
2019-05-15T07:25:58.714Z,10.88
2019-05-15T07:28:25.686Z,11.25
2019-05-15T07:30:54.970Z,11.56
2019-05-15T07:33:35.723Z,11.78
2019-05-15T07:35:50.394Z,11.51
2019-05-15T07:38:18.323Z,11.61
2019-05-15T07:40:45.211Z,11.78
2019-05-15T07:43:13.401Z,11.76
2019-05-15T07:46:45.442Z,11.75
2019-05-15T07:49:25.426Z,11.85
2019-05-15T07:51:52.441Z,11.65
2019-05-15T07:54:19.136Z,11.61
2019-05-15T07:56:45.862Z,11.80
2019-05-15T07:59:15.646Z,12.00
2019-05-15T08:01:42.342Z,12.25
2019-05-15T08:04:24.757Z,12.36
2019-05-15T08:06:40.458Z,12.25
2019-05-15T08:09:09.542Z,12.12
2019-05-15T08:11:38.856Z,12.33
2019-05-15T08:14:04.901Z,12.54
2019-05-15T08:16:31.634Z,12.56
2019-05-15T08:18:58.363Z,12.57
2019-05-15T08:21:25.074Z,12.68
2019-05-15T08:23:51.801Z,12.36
2019-05-15T08:26:18.505Z,12.34
2019-05-15T08:28:45.506Z,12.39
2019-05-15T08:31:12.264Z,12.69
2019-05-15T08:33:41.106Z,12.68
2019-05-15T08:36:08.371Z,12.86
2019-05-15T08:38:38.144Z,12.99
2019-05-15T08:41:04.163Z,12.63
2019-05-15T08:43:31.490Z,13.10
2019-05-15T08:45:58.773Z,13.25
2019-05-15T08:48:27.732Z,13.35
2019-05-15T08:50:54.506Z,13.28
2019-05-15T08:53:21.482Z,13.38
2019-05-15T08:55:48.276Z,13.34
2019-05-15T08:58:14.916Z,13.41
2019-05-15T09:00:44.059Z,13.48
2019-05-15T09:03:10.255Z,13.68
2019-05-15T09:05:38.798Z,13.63
2019-05-15T09:08:05.572Z,13.46
2019-05-15T09:10:32.411Z,13.52
2019-05-15T09:12:59.171Z,13.32
2019-05-15T09:15:25.856Z,13.19
2019-05-15T09:18:07.925Z,13.62
2019-05-15T09:20:23.475Z,13.47
2019-05-15T09:22:50.162Z,13.76
2019-05-15T09:25:19.407Z,13.26
2019-05-15T09:27:45.490Z,13.39
2019-05-15T09:30:18.287Z,13.72
2019-05-15T09:32:44.636Z,13.42
2019-05-15T09:35:18.677Z,13.05
2019-05-15T09:37:45.736Z,13.19
2019-05-15T09:40:12.437Z,13.70
2019-05-15T09:42:39.147Z,13.81
2019-05-15T09:45:08.888Z,14.09
2019-05-15T09:47:40.410Z,14.20
2019-05-15T09:50:08.505Z,14.37
2019-05-15T09:52:35.352Z,14.46
2019-05-15T09:55:03.690Z,14.65
2019-05-15T09:57:32.480Z,14.80
2019-05-15T09:59:59.168Z,14.87
2019-05-15T10:02:28.231Z,14.77
2019-05-15T10:05:06.113Z,15.01
2019-05-15T10:07:23.406Z,14.54
2019-05-15T10:09:52.336Z,13.83
2019-05-15T10:12:18.685Z,14.26
2019-05-15T10:14:48.852Z,14.03
2019-05-15T10:17:13.968Z,14.15
2019-05-15T10:19:40.903Z,14.43
2019-05-15T10:22:09.761Z,14.95
2019-05-15T10:24:36.239Z,15.23
2019-05-15T10:27:03.937Z,14.94
2019-05-15T10:29:32.909Z,14.68
2019-05-15T10:31:59.627Z,14.74
2019-05-15T10:34:28.753Z,14.55
2019-05-15T10:36:55.022Z,14.94
2019-05-15T10:39:21.815Z,15.06
2019-05-15T10:41:48.511Z,14.84
2019-05-15T10:44:18.002Z,15.03
2019-05-15T10:46:44.175Z,14.74
2019-05-15T10:49:11.070Z,15.12
2019-05-15T10:51:39.653Z,15.10
2019-05-15T10:54:08.533Z,15.34
2019-05-15T10:56:35.705Z,15.71
2019-05-15T10:59:03.080Z,15.26
2019-05-15T11:01:29.806Z,15.29
2019-05-15T11:03:59.326Z,15.31
2019-05-15T11:06:26.041Z,14.76
2019-05-15T11:08:52.746Z,14.50
2019-05-15T11:11:24.043Z,15.06
2019-05-15T11:13:50.739Z,15.25
2019-05-15T11:16:18.634Z,14.82
2019-05-15T11:18:48.233Z,14.64
2019-05-15T11:21:18.970Z,15.04
2019-05-15T11:23:49.426Z,15.32
2019-05-15T11:26:16.393Z,15.68
2019-05-15T11:28:43.239Z,16.07
2019-05-15T11:31:10.521Z,16.49
2019-05-15T11:33:38.439Z,16.08
2019-05-15T11:36:06.348Z,15.73
2019-05-15T11:38:33.383Z,15.55
2019-05-15T11:41:00.395Z,15.89
2019-05-15T11:43:29.132Z,16.03
2019-05-15T11:45:58.651Z,15.91
2019-05-15T11:48:29.833Z,15.85
2019-05-15T11:50:58.914Z,15.36
2019-05-15T11:53:28.229Z,15.23
2019-05-15T11:55:54.753Z,15.32
2019-05-15T11:58:21.808Z,15.18
2019-05-15T12:00:49.235Z,15.53
2019-05-15T12:03:18.870Z,16.13
2019-05-15T12:05:44.947Z,16.55
2019-05-15T12:08:12.620Z,16.91
2019-05-15T12:10:39.805Z,16.62
2019-05-15T12:13:09.497Z,16.70
2019-05-15T12:15:35.199Z,16.61
2019-05-15T12:18:01.890Z,16.01
2019-05-15T12:20:28.792Z,15.79
2019-05-15T12:22:55.708Z,16.12
2019-05-15T12:25:22.416Z,16.42
2019-05-15T12:27:49.817Z,17.32
2019-05-15T12:30:19.651Z,17.77
2019-05-15T12:32:45.187Z,17.95
2019-05-15T12:35:12.187Z,17.27
2019-05-15T12:37:40.113Z,17.00
2019-05-15T12:59:58.532Z,17.40
2019-05-15T13:02:27.901Z,17.54
2019-05-15T13:04:56.992Z,17.97
2019-05-15T13:07:24.007Z,17.37
2019-05-15T13:09:50.811Z,18.78
2019-05-15T13:12:18.199Z,18.89
2019-05-15T13:14:45.324Z,19.14
2019-05-15T13:17:12.718Z,18.93
2019-05-15T13:19:39.419Z,19.18
2019-05-15T13:22:17.400Z,19.40
2019-05-15T13:24:34.839Z,18.99
2019-05-15T13:27:01.949Z,18.58
2019-05-15T13:29:29.182Z,18.56
2019-05-15T13:31:58.463Z,18.83
2019-05-15T13:34:25.015Z,18.81
2019-05-15T13:36:52.177Z,19.54
2019-05-15T13:39:18.879Z,19.42
2019-05-15T13:41:48.169Z,18.65
2019-05-15T13:44:14.237Z,18.51
2019-05-15T13:46:41.057Z,19.36
2019-05-15T13:49:08.434Z,19.19
2019-05-15T13:51:48.900Z,18.57
2019-05-15T13:54:15.925Z,18.26
2019-05-15T13:56:42.625Z,18.21
2019-05-15T13:59:10.217Z,18.47
2019-05-15T14:01:39.385Z,18.74
2019-05-15T14:04:08.670Z,18.90
2019-05-15T14:06:37.941Z,19.07
2019-05-15T14:09:08.752Z,19.28
2019-05-15T14:11:35.736Z,19.50
2019-05-15T14:14:06.838Z,19.22
2019-05-15T14:16:33.573Z,18.93
2019-05-15T14:19:03.595Z,19.05
2019-05-15T14:21:30.284Z,19.26
2019-05-15T14:23:58.891Z,18.79
2019-05-15T14:26:25.684Z,18.92
2019-05-15T14:28:52.401Z,19.73
2019-05-15T14:31:19.102Z,20.54
2019-05-15T14:33:45.871Z,20.80
2019-05-15T14:36:12.601Z,20.08
2019-05-15T14:38:39.311Z,19.85
2019-05-15T14:41:06.036Z,19.30
2019-05-15T14:43:32.927Z,19.92
2019-05-15T14:46:04.416Z,20.92
2019-05-15T14:48:31.270Z,21.53
2019-05-15T14:51:00.684Z,21.14
2019-05-15T14:53:38.393Z,21.63
2019-05-15T14:56:04.812Z,21.65
2019-05-15T14:58:31.830Z,21.86
2019-05-15T15:01:03.087Z,22.21
2019-05-15T15:03:28.922Z,21.93
2019-05-15T15:05:58.143Z,22.63
2019-05-15T15:08:25.660Z,22.96
2019-05-15T15:10:52.594Z,22.96
2019-05-15T15:13:19.283Z,21.84
2019-05-15T15:15:48.498Z,21.45
2019-05-15T15:18:15.029Z,21.30
2019-05-15T15:20:41.756Z,21.05
2019-05-15T15:23:09.084Z,20.82
2019-05-15T15:25:35.784Z,20.83
2019-05-15T15:28:02.548Z,21.03
2019-05-15T15:30:29.873Z,22.45
2019-05-15T15:32:57.677Z,23.42
2019-05-15T15:35:24.914Z,23.03
2019-05-15T15:37:51.627Z,23.18
2019-05-15T15:40:18.854Z,23.81
2019-05-15T15:42:48.371Z,23.82
2019-05-15T15:45:14.488Z,23.05
2019-05-15T15:47:41.578Z,23.37
2019-05-15T15:50:09.422Z,22.61
2019-05-15T15:52:38.463Z,22.20
2019-05-15T15:55:08.297Z,22.05
2019-05-15T15:57:35.133Z,21.78
2019-05-15T16:00:05.224Z,22.02
2019-05-15T16:02:32.052Z,21.50
2019-05-15T16:04:59.048Z,21.31
2019-05-15T16:07:28.199Z,21.32
2019-05-15T16:09:55.296Z,21.21
2019-05-15T16:12:22.022Z,21.91
2019-05-15T16:14:48.961Z,22.01
2019-05-15T16:17:17.932Z,21.93
2019-05-15T16:19:44.284Z,22.19
2019-05-15T16:22:12.989Z,22.25
2019-05-15T16:24:39.969Z,20.95
2019-05-15T16:27:08.991Z,20.47
2019-05-15T16:29:35.637Z,19.52
2019-05-15T16:32:02.348Z,20.10
2019-05-15T16:34:32.140Z,20.78
2019-05-15T16:36:58.878Z,20.31
2019-05-15T16:39:25.680Z,20.12
2019-05-15T16:41:52.735Z,19.99
2019-05-15T16:44:19.654Z,20.08
2019-05-15T16:46:48.171Z,20.19
2019-05-15T16:49:15.328Z,20.49
2019-05-15T16:51:42.105Z,19.67
2019-05-15T16:54:08.945Z,19.39
2019-05-15T16:56:40.070Z,19.90
2019-05-15T16:59:09.178Z,19.72
2019-05-15T17:01:39.148Z,19.63
2019-05-15T17:04:04.917Z,18.82
2019-05-15T17:06:31.972Z,18.83
2019-05-15T17:08:58.880Z,18.77
2019-05-15T17:11:25.636Z,19.10
2019-05-15T17:13:52.341Z,19.31
2019-05-15T17:16:21.091Z,19.21
2019-05-15T17:18:48.586Z,18.99
2019-05-15T17:21:15.734Z,18.76
2019-05-15T17:23:42.738Z,18.97
2019-05-15T17:26:11.437Z,18.48
2019-05-15T17:28:38.381Z,18.45
2019-05-15T17:31:05.307Z,18.52
2019-05-15T17:33:32.154Z,18.44
2019-05-15T17:35:59.158Z,18.68
2019-05-15T17:38:28.723Z,18.36
2019-05-15T17:40:57.716Z,18.07
2019-05-15T17:43:24.348Z,18.31
2019-05-15T17:45:51.293Z,17.77
2019-05-15T17:48:19.644Z,17.91
2019-05-15T17:50:52.161Z,18.27
2019-05-15T17:53:15.371Z,18.44
2019-05-15T17:55:42.124Z,18.26
2019-05-15T17:58:09.405Z,17.68
2019-05-15T18:00:36.307Z,17.84
2019-05-15T18:03:08.476Z,17.90
2019-05-15T18:05:39.184Z,17.97
2019-05-15T18:08:05.702Z,17.99
2019-05-15T18:10:32.536Z,17.72
2019-05-15T18:12:59.276Z,17.51
2019-05-15T18:15:26.296Z,17.14
2019-05-15T18:17:53.369Z,17.14
2019-05-15T18:20:23.796Z,17.29
2019-05-15T18:22:50.504Z,17.33
2019-05-15T18:25:18.260Z,17.18
2019-05-15T18:27:45.216Z,17.40
2019-05-15T18:30:13.280Z,17.50
2019-05-15T18:32:40.299Z,17.08
2019-05-15T18:35:08.325Z,16.70
2019-05-15T18:37:35.778Z,16.62
2019-05-15T18:40:06.182Z,16.92
2019-05-15T18:42:31.694Z,17.10
2019-05-15T18:44:58.498Z,17.06
2019-05-15T18:47:25.162Z,17.12
2019-05-15T18:50:25.663Z,17.18
2019-05-15T18:52:52.758Z,17.03
2019-05-15T18:55:19.487Z,16.94
2019-05-15T18:57:48.484Z,16.87
2019-05-15T19:00:15.236Z,16.79
2019-05-15T19:02:42.606Z,16.79
2019-05-15T19:05:09.652Z,16.82
2019-05-15T19:07:38.269Z,16.72
2019-05-15T19:10:05.124Z,16.68
2019-05-15T19:12:31.818Z,16.66
2019-05-15T19:14:58.836Z,16.63
2019-05-15T19:17:27.542Z,16.63
2019-05-15T19:19:54.914Z,16.61
2019-05-15T19:22:21.746Z,16.38
2019-05-15T19:24:49.061Z,16.27
2019-05-15T19:27:18.496Z,16.14
2019-05-15T19:29:44.655Z,16.17
2019-05-15T19:32:11.387Z,16.02
2019-05-15T19:34:40.987Z,15.84
2019-05-15T19:37:07.941Z,15.74
2019-05-15T19:39:35.081Z,15.79
2019-05-15T19:42:01.966Z,15.74
2019-05-15T19:44:30.679Z,15.75
2019-05-15T19:46:58.499Z,15.68
2019-05-15T19:49:25.816Z,15.80
2019-05-15T19:51:52.850Z,15.65
2019-05-15T19:54:19.645Z,15.49
2019-05-15T19:56:48.212Z,15.41
2019-05-15T19:59:15.035Z,15.28
2019-05-15T20:01:41.919Z,15.27
2019-05-15T20:04:08.683Z,15.29
2019-05-15T20:06:36.039Z,15.24
2019-05-15T20:09:04.768Z,15.17
2019-05-15T20:11:31.496Z,15.09
2019-05-15T20:13:58.529Z,15.03
2019-05-15T20:16:25.451Z,15.00
2019-05-15T20:18:52.182Z,14.91
2019-05-15T20:21:19.094Z,14.73
2019-05-15T20:23:46.289Z,14.71
2019-05-15T20:26:15.033Z,14.64
2019-05-15T20:28:42.231Z,14.73
2019-05-15T20:31:09.303Z,14.64
2019-05-15T20:33:37.888Z,14.62
2019-05-15T20:36:05.094Z,14.72
2019-05-15T20:38:34.112Z,14.65
2019-05-15T20:41:03.205Z,14.41
2019-05-15T20:43:29.961Z,14.51
2019-05-15T20:45:58.763Z,14.58
2019-05-15T20:48:25.548Z,14.55
2019-05-15T20:50:52.487Z,14.41
2019-05-15T20:53:19.565Z,14.37
2019-05-15T20:55:48.314Z,14.28
2019-05-15T20:58:15.023Z,14.22
2019-05-15T21:00:42.763Z,14.30
2019-05-15T21:03:09.929Z,14.26
2019-05-15T21:05:38.242Z,14.18
2019-05-15T21:08:05.039Z,14.06
2019-05-15T21:10:31.783Z,13.97
2019-05-15T21:12:59.911Z,13.95
2019-05-15T21:15:26.639Z,13.93
2019-05-15T21:17:59.431Z,13.79
2019-05-15T21:20:23.609Z,13.79
2019-05-15T21:22:50.599Z,13.75
2019-05-15T21:25:19.816Z,13.57
2019-05-15T21:27:48.576Z,13.56
2019-05-15T21:30:14.723Z,13.44
2019-05-15T21:32:41.531Z,13.43
2019-05-15T21:35:09.350Z,13.39
2019-05-15T21:37:39.033Z,13.35
2019-05-15T21:40:08.000Z,13.25
2019-05-15T21:42:34.354Z,13.28
2019-05-15T21:45:01.086Z,13.12
2019-05-15T21:47:28.111Z,13.07
2019-05-15T21:49:55.121Z,13.04
2019-05-15T21:52:22.369Z,12.94
2019-05-15T21:54:50.460Z,13.00
2019-05-15T21:57:32.265Z,13.05
2019-05-15T21:59:45.973Z,13.10
2019-05-15T22:02:13.076Z,13.02
2019-05-15T22:04:51.276Z,13.03
2019-05-15T22:07:28.185Z,13.03
2019-05-15T22:10:19.668Z,12.97
2019-05-15T22:12:48.299Z,12.91
2019-05-15T22:15:15.277Z,12.86
2019-05-15T22:17:42.359Z,12.70
2019-05-15T22:20:10.798Z,12.72
2019-05-15T22:22:37.903Z,12.68
2019-05-15T22:25:04.946Z,12.41
2019-05-15T22:27:31.701Z,12.22
2019-05-15T22:29:58.864Z,12.15
2019-05-15T22:32:25.705Z,12.11
2019-05-15T22:35:05.683Z,12.06
2019-05-15T22:37:21.717Z,12.00
2019-05-15T22:39:48.977Z,12.09
2019-05-15T22:42:18.140Z,11.92
2019-05-15T22:44:44.264Z,12.02
2019-05-15T22:47:10.995Z,11.92
2019-05-15T22:49:38.121Z,11.97
2019-05-15T22:52:05.247Z,12.02
2019-05-15T22:54:31.979Z,12.08
2019-05-15T22:56:59.207Z,12.04
2019-05-15T22:59:28.214Z,12.10
2019-05-15T23:01:54.500Z,12.04
2019-05-15T23:04:21.744Z,12.08
2019-05-15T23:06:48.444Z,12.06
2019-05-15T23:09:15.141Z,12.07
2019-05-15T23:11:42.049Z,11.93
2019-05-15T23:14:12.931Z,11.95
2019-05-15T23:16:39.979Z,12.04
2019-05-15T23:19:08.140Z,11.86
2019-05-15T23:21:40.375Z,11.84
2019-05-15T23:24:09.608Z,11.83
2019-05-15T23:26:38.633Z,11.86
2019-05-15T23:29:05.030Z,11.74
2019-05-15T23:31:32.068Z,11.59
2019-05-15T23:33:58.801Z,11.62
2019-05-15T23:36:25.496Z,11.42
2019-05-15T23:38:52.346Z,11.44
2019-05-15T23:41:19.257Z,11.44
2019-05-15T23:43:48.271Z,11.40
2019-05-15T23:46:14.865Z,11.56
2019-05-15T23:48:41.583Z,11.59
2019-05-15T23:51:08.661Z,11.47
2019-05-15T23:53:35.572Z,11.28
2019-05-15T23:56:02.302Z,11.03
2019-05-15T23:58:29.387Z,10.83
